Time;durP1;ratioP1;P1;durP2;ratioP2;P2;SDS_P1;SDS_P2;PMS_P1;PMS_P2;Temp;Humidity;BMP_temperature;BMP_pressure;BME280_temperature;BME280_humidity;BME280_pressure;Samples;Min_cycle;Max_cycle;Signal;HPM_P1;HPM_P2
2023/09/18 00:00:13;;;;;;;4.20;2.37;;;;;;;21.26;65.08;99844.50;4469452;32;33823;-80
2023/09/18 00:02:42;;;;;;;3.67;2.17;;;;;;;21.32;64.59;99843.28;4466416;32;33924;-82
2023/09/18 00:05:14;;;;;;;5.07;2.58;;;;;;;21.31;64.52;99845.09;4465685;32;34770;-82
2023/09/18 00:07:44;;;;;;;4.20;2.05;;;;;;;21.23;65.37;99842.00;4465608;32;33333;-82
2023/09/18 00:10:13;;;;;;;5.00;2.70;;;;;;;21.13;65.50;99838.16;4461264;32;34317;-81
2023/09/18 00:12:42;;;;;;;4.03;1.85;;;;;;;21.12;65.76;99836.47;4461700;32;34700;-81
2023/09/18 00:15:11;;;;;;;4.80;2.28;;;;;;;20.96;66.69;99840.87;4472479;32;33918;-81
2023/09/18 00:17:40;;;;;;;4.20;1.90;;;;;;;20.97;66.53;99832.87;4469845;32;34209;-81
2023/09/18 00:20:09;;;;;;;4.55;2.17;;;;;;;20.82;67.07;99826.63;4462786;32;34376;-81
2023/09/18 00:22:38;;;;;;;4.68;2.30;;;;;;;20.94;66.82;99829.56;4460342;32;34104;-81
2023/09/18 00:25:09;;;;;;;2.22;1.67;;;;;;;21.13;65.96;99830.25;4459921;32;33828;-81
2023/09/18 00:27:37;;;;;;;4.68;2.20;;;;;;;20.79;67.13;99834.72;4468096;32;33615;-81
2023/09/18 00:30:07;;;;;;;8.52;2.37;;;;;;;20.88;66.89;99836.00;4460328;32;34737;-81
2023/09/18 00:32:36;;;;;;;4.75;2.35;;;;;;;20.78;67.08;99829.50;4459221;32;33494;-83
2023/09/18 00:35:06;;;;;;;5.32;2.15;;;;;;;21.08;66.04;99837.56;4467131;32;34758;-81
2023/09/18 00:37:36;;;;;;;4.40;2.30;;;;;;;21.06;65.77;99835.00;4473694;32;33142;-80
2023/09/18 00:40:08;;;;;;;5.07;2.07;;;;;;;20.84;66.60;99830.03;4475275;32;33202;-81
2023/09/18 00:42:37;;;;;;;5.72;2.17;;;;;;;21.25;65.11;99826.94;4475635;32;34603;-80
2023/09/18 00:45:07;;;;;;;4.00;1.95;;;;;;;20.87;66.33;99823.75;4472564;32;34120;-80
2023/09/18 00:47:37;;;;;;;3.45;1.77;;;;;;;21.02;65.88;99827.34;4461348;32;33344;-81
2023/09/18 00:50:08;;;;;;;6.40;3.08;;;;;;;21.25;65.03;99824.31;4474986;32;34409;-82
2023/09/18 00:52:38;;;;;;;4.72;2.60;;;;;;;20.94;66.08;99827.75;4461859;32;34637;-81
2023/09/18 00:55:09;;;;;;;3.00;1.90;;;;;;;21.20;65.21;99830.78;4461022;32;34109;-81
2023/09/18 00:57:38;;;;;;;3.10;1.85;;;;;;;21.07;65.88;99830.59;4460420;32;33333;-82
2023/09/18 01:00:08;;;;;;;3.60;1.80;;;;;;;20.92;66.25;99826.97;4461380;32;33412;-81
2023/09/18 01:02:38;;;;;;;4.53;2.50;;;;;;;21.04;65.63;99836.03;4467016;32;33311;-82
2023/09/18 01:05:07;;;;;;;4.43;2.50;;;;;;;20.88;66.11;99825.47;4476619;32;33639;-81
2023/09/18 01:07:37;;;;;;;5.28;1.90;;;;;;;21.03;65.70;99829.06;4466483;32;34442;-82
2023/09/18 01:10:08;;;;;;;3.37;1.85;;;;;;;21.05;65.39;99825.41;4464367;32;33488;-82
2023/09/18 01:12:43;;;;;;;4.72;2.15;;;;;;;20.94;65.79;99826.91;4468933;32;33899;-81
2023/09/18 01:15:15;;;;;;;4.43;2.22;;;;;;;20.76;66.53;99821.69;4465181;32;34189;-80
2023/09/18 01:17:44;;;;;;;4.28;2.20;;;;;;;20.64;67.08;99817.06;4466247;32;33303;-82
2023/09/18 01:20:13;;;;;;;5.37;2.25;;;;;;;20.97;65.64;99814.44;4460016;32;33659;-81
2023/09/18 01:22:44;;;;;;;4.50;2.17;;;;;;;20.55;67.36;99809.63;4460713;32;33811;-81
2023/09/18 01:25:13;;;;;;;7.55;2.55;;;;;;;20.92;65.59;99812.94;4466904;32;32925;-81
2023/09/18 01:27:42;;;;;;;6.03;2.35;;;;;;;20.85;65.99;99815.94;4462785;32;34189;-81
2023/09/18 01:30:12;;;;;;;4.03;2.15;;;;;;;20.65;66.60;99813.50;4461384;32;33517;-81
2023/09/18 01:32:41;;;;;;;4.62;2.08;;;;;;;20.92;65.82;99812.94;4474960;32;33938;-81
2023/09/18 01:35:11;;;;;;;4.45;2.03;;;;;;;20.80;65.95;99817.97;4469330;32;33860;-82
2023/09/18 01:37:41;;;;;;;4.37;2.05;;;;;;;20.72;66.42;99816.66;4471272;32;33013;-81
2023/09/18 01:40:12;;;;;;;3.12;1.75;;;;;;;20.77;66.20;99819.91;4464603;32;33511;-82
2023/09/18 01:42:41;;;;;;;2.95;1.87;;;;;;;20.78;66.27;99819.84;4463772;32;33741;-80
2023/09/18 01:45:10;;;;;;;4.10;2.28;;;;;;;20.72;66.47;99820.16;4468319;32;34804;-80
2023/09/18 01:47:39;;;;;;;3.65;2.00;;;;;;;20.63;66.65;99820.63;4468474;32;33209;-81
2023/09/18 01:50:09;;;;;;;4.40;2.33;;;;;;;20.52;66.89;99822.97;4466095;32;34341;-81
2023/09/18 01:52:38;;;;;;;3.33;2.17;;;;;;;20.54;66.92;99815.78;4461667;32;33271;-81
2023/09/18 01:55:08;;;;;;;5.03;2.58;;;;;;;20.54;66.88;99814.03;4470041;32;33963;-81
2023/09/18 01:57:39;;;;;;;4.37;2.30;;;;;;;20.54;66.73;99813.16;4477230;32;33629;-82
2023/09/18 02:00:09;;;;;;;4.60;2.42;;;;;;;20.59;66.65;99808.56;4461461;32;32992;-82
2023/09/18 02:02:40;;;;;;;4.57;1.83;;;;;;;20.60;66.59;99811.09;4465784;32;34114;-81
2023/09/18 02:05:25;;;;;;;3.87;2.00;;;;;;;20.72;66.47;99808.75;4474931;32;33824;-81
2023/09/18 02:07:54;;;;;;;6.05;2.83;;;;;;;20.55;67.09;99807.84;4468642;32;33355;-81
2023/09/18 02:10:23;;;;;;;4.07;2.08;;;;;;;20.68;66.60;99810.69;4482856;32;34641;-80
2023/09/18 02:12:53;;;;;;;3.67;1.95;;;;;;;20.50;67.58;99806.38;4466113;32;34477;-81
2023/09/18 02:15:22;;;;;;;4.50;2.10;;;;;;;20.63;66.71;99810.09;4470299;32;33457;-81
2023/09/18 02:17:51;;;;;;;4.57;2.12;;;;;;;20.54;67.34;99800.84;4464030;32;33616;-81
2023/09/18 02:20:20;;;;;;;4.97;2.20;;;;;;;20.41;67.82;99807.69;4467423;32;33499;-81
2023/09/18 02:22:49;;;;;;;4.93;2.60;;;;;;;20.42;68.00;99806.78;4472479;32;33754;-81
2023/09/18 02:25:18;;;;;;;3.92;2.17;;;;;;;20.47;67.71;99812.66;4473458;32;34864;-81
2023/09/18 02:27:51;;;;;;;5.25;3.00;;;;;;;20.24;68.74;99809.41;4461988;32;33019;-82
2023/09/18 02:30:21;;;;;;;4.03;2.20;;;;;;;20.31;68.86;99820.50;4462506;32;33980;-81
2023/09/18 02:32:50;;;;;;;5.70;3.00;;;;;;;20.51;67.98;99826.50;4464585;32;33737;-82
2023/09/18 02:35:19;;;;;;;4.40;2.35;;;;;;;20.24;69.01;99824.38;4468393;32;33967;-82
2023/09/18 02:37:49;;;;;;;5.62;3.30;;;;;;;20.42;68.67;99823.44;4471483;32;34035;-81
2023/09/18 02:40:17;;;;;;;6.68;2.72;;;;;;;20.51;68.08;99821.22;4463108;32;33481;-81
2023/09/18 02:42:46;;;;;;;3.25;1.85;;;;;;;20.43;68.14;99814.59;4474140;32;34571;-81
2023/09/18 02:45:15;;;;;;;5.03;2.67;;;;;;;20.52;67.99;99820.31;4474539;32;34274;-80
2023/09/18 02:47:45;;;;;;;4.85;2.62;;;;;;;20.56;67.68;99824.50;4464962;32;33687;-82
2023/09/18 02:50:15;;;;;;;5.18;2.85;;;;;;;20.27;69.05;99826.84;4468816;32;33069;-80
2023/09/18 02:52:43;;;;;;;4.53;2.53;;;;;;;20.39;68.36;99825.34;4465482;32;33730;-81
2023/09/18 02:55:13;;;;;;;5.43;2.67;;;;;;;20.30;68.75;99824.06;4466971;32;33885;-82
2023/09/18 02:57:42;;;;;;;4.87;2.58;;;;;;;20.36;68.55;99828.16;4460280;32;33630;-81
2023/09/18 03:00:12;;;;;;;5.30;2.47;;;;;;;20.41;67.95;99821.72;4461160;32;33793;-82
2023/09/18 03:02:42;;;;;;;7.82;2.58;;;;;;;20.51;67.72;99827.34;4463829;32;34412;-80
2023/09/18 03:05:12;;;;;;;4.75;2.35;;;;;;;20.48;68.01;99821.41;4466787;32;33879;-81
2023/09/18 03:07:41;;;;;;;6.53;2.83;;;;;;;20.33;68.28;99820.41;4467348;32;32841;-80
2023/09/18 03:10:13;;;;;;;5.03;2.80;;;;;;;20.34;68.55;99822.94;4462955;31;34315;-81
2023/09/18 03:12:42;;;;;;;5.22;2.37;;;;;;;20.55;67.53;99823.66;4462411;32;33667;-81
2023/09/18 03:15:12;;;;;;;6.70;2.83;;;;;;;20.30;68.42;99810.03;4467488;32;33924;-80
2023/09/18 03:17:41;;;;;;;5.03;2.42;;;;;;;20.30;68.82;99813.53;4471715;32;33143;-81
2023/09/18 03:20:12;;;;;;;5.15;2.37;;;;;;;20.00;69.70;99814.12;4470201;32;33617;-80
2023/09/18 03:22:42;;;;;;;5.90;2.72;;;;;;;20.04;69.71;99809.56;4469077;32;34035;-81
2023/09/18 03:25:11;;;;;;;4.80;2.55;;;;;;;20.14;69.28;99802.06;4467453;32;34132;-80
2023/09/18 03:27:39;;;;;;;4.37;2.12;;;;;;;20.07;69.46;99800.66;4471840;32;33513;-82
2023/09/18 03:30:12;;;;;;;5.43;3.05;;;;;;;20.17;69.03;99801.91;4462694;32;33953;-81
2023/09/18 03:32:41;;;;;;;4.07;2.30;;;;;;;20.05;69.62;99800.72;4471757;32;33424;-82
2023/09/18 03:35:17;;;;;;;6.20;3.60;;;;;;;20.34;68.13;99799.25;4463222;32;34660;-81
2023/09/18 03:37:46;;;;;;;3.78;2.33;;;;;;;20.07;69.18;99800.66;4462990;32;33430;-81
2023/09/18 03:40:16;;;;;;;4.85;2.85;;;;;;;19.74;70.25;99799.66;4476567;32;33543;-81
2023/09/18 03:42:45;;;;;;;5.05;2.50;;;;;;;19.46;71.56;99804.50;4458477;32;34887;-80
2023/09/18 03:45:14;;;;;;;6.65;2.65;;;;;;;19.94;69.80;99803.91;4467312;32;34155;-81
2023/09/18 03:47:43;;;;;;;5.07;2.63;;;;;;;19.86;69.92;99805.22;4462577;32;32753;-82
2023/09/18 03:50:14;;;;;;;5.47;2.62;;;;;;;20.22;68.42;99805.16;4469357;32;33596;-82
2023/09/18 03:52:43;;;;;;;5.43;2.83;;;;;;;20.08;68.77;99808.50;4461915;32;33952;-82
2023/09/18 03:55:12;;;;;;;3.60;1.90;;;;;;;20.07;68.90;99800.66;4467972;32;34192;-82
2023/09/18 03:57:42;;;;;;;5.20;2.80;;;;;;;20.07;68.78;99805.94;4471357;32;33449;-80
2023/09/18 04:00:12;;;;;;;5.20;2.67;;;;;;;20.10;68.67;99798.72;4465431;32;33775;-81
2023/09/18 04:02:43;;;;;;;6.20;3.30;;;;;;;20.05;68.90;99800.72;4465162;32;34499;-82
2023/09/18 04:05:14;;;;;;;7.80;2.50;;;;;;;20.02;68.94;99793.00;4467194;32;34138;-81
2023/09/18 04:07:45;;;;;;;4.22;2.20;;;;;;;19.92;69.35;99792.59;4467857;32;33301;-80
2023/09/18 04:10:19;;;;;;;4.78;2.50;;;;;;;19.91;69.26;99790.03;4459369;32;33593;-81
2023/09/18 04:12:50;;;;;;;5.82;3.45;;;;;;;19.87;69.43;99792.00;4468847;32;34330;-81
2023/09/18 04:15:19;;;;;;;4.87;2.75;;;;;;;19.90;69.01;99788.34;4464965;32;35615;-80
2023/09/18 04:17:48;;;;;;;5.87;2.85;;;;;;;19.92;68.98;99782.06;4462531;32;34293;-80
2023/09/18 04:20:19;;;;;;;5.90;3.75;;;;;;;19.74;69.84;99788.25;4463021;32;33919;-81
2023/09/18 04:22:50;;;;;;;5.10;2.62;;;;;;;19.89;69.19;99779.59;4468530;32;34566;-81
2023/09/18 04:25:19;;;;;;;5.15;2.40;;;;;;;19.88;69.25;99783.16;4465030;32;34370;-80
2023/09/18 04:27:50;;;;;;;5.20;2.65;;;;;;;19.79;69.43;99776.59;4462223;32;33344;-80
2023/09/18 04:30:20;;;;;;;5.53;3.15;;;;;;;19.80;69.56;99780.91;4466229;32;33043;-79
2023/09/18 04:32:51;;;;;;;8.20;2.37;;;;;;;19.79;69.57;99775.75;4459796;32;33242;-82
2023/09/18 04:35:25;;;;;;;3.87;2.45;;;;;;;19.85;69.20;99770.16;4473905;32;33746;-82
2023/09/18 04:37:57;;;;;;;5.72;2.95;;;;;;;19.71;69.48;99767.34;4472116;32;34495;-81
2023/09/18 04:40:26;;;;;;;5.70;2.80;;;;;;;19.46;70.53;99779.06;4459086;32;35301;-81
2023/09/18 04:42:55;;;;;;;6.57;2.65;;;;;;;19.56;70.14;99777.66;4457574;32;34015;-82
2023/09/18 04:45:25;;;;;;;7.30;3.47;;;;;;;19.56;70.23;99780.31;4458598;32;33750;-82
2023/09/18 04:47:54;;;;;;;11.20;3.08;;;;;;;19.40;70.98;99789.84;4471345;32;33106;-81
2023/09/18 04:50:26;;;;;;;6.30;2.70;;;;;;;19.55;70.29;99788.28;4458048;32;33583;-82
2023/09/18 04:52:59;;;;;;;6.93;2.58;;;;;;;19.41;70.93;99786.31;4460455;32;33629;-82
2023/09/18 04:55:31;;;;;;;4.75;2.67;;;;;;;19.50;70.71;99778.00;4466264;32;34694;-81
2023/09/18 04:58:03;;;;;;;7.65;3.12;;;;;;;19.26;71.53;99776.53;4460303;32;33409;-81
2023/09/18 05:00:33;;;;;;;6.43;3.20;;;;;;;19.39;70.60;99785.53;4474571;32;33698;-81
2023/09/18 05:03:03;;;;;;;5.70;2.90;;;;;;;19.47;70.66;99767.59;4465149;32;34662;-80
2023/09/18 05:05:33;;;;;;;6.43;3.35;;;;;;;19.36;70.85;99778.66;4461649;32;34606;-80
2023/09/18 05:08:04;;;;;;;4.60;3.08;;;;;;;19.35;71.22;99778.72;4461564;32;32959;-81
2023/09/18 05:10:33;;;;;;;4.78;2.62;;;;;;;19.09;72.14;99785.22;4476146;32;33751;-81
2023/09/18 05:13:02;;;;;;;5.85;2.60;;;;;;;19.10;72.41;99782.50;4464277;32;33966;-80
2023/09/18 05:15:32;;;;;;;5.15;2.80;;;;;;;19.30;71.63;99772.81;4464139;32;35363;-81
2023/09/18 05:18:03;;;;;;;6.72;3.40;;;;;;;19.31;71.50;99783.28;4456476;32;34125;-80
2023/09/18 05:20:35;;;;;;;6.95;2.28;;;;;;;19.48;71.32;99777.19;4465623;32;33691;-81
2023/09/18 05:23:04;;;;;;;;;;;;;;;19.43;71.31;99781.84;4463122;32;33640;-82
2023/09/18 05:25:37;;;;;;;6.70;3.50;;;;;;;19.52;70.75;99777.91;4463968;32;34573;-81
2023/09/18 05:28:06;;;;;;;5.22;2.85;;;;;;;19.67;69.97;99778.91;4466974;32;32790;-82
2023/09/18 05:30:38;;;;;;;6.07;3.35;;;;;;;19.25;72.14;99785.34;4459108;32;33512;-81
2023/09/18 05:33:08;;;;;;;6.25;3.25;;;;;;;19.52;71.20;99783.16;4471538;32;33605;-81
2023/09/18 05:35:42;;;;;;;;;;;;;;;19.48;71.42;99782.47;4469369;32;33958;-81
2023/09/18 05:38:13;;;;;;;7.28;3.22;;;;;;;19.71;70.27;99772.63;4470889;32;34305;-82
2023/09/18 05:40:43;;;;;;;5.50;2.45;;;;;;;19.68;70.46;99776.25;4464891;32;34230;-81
2023/09/18 05:43:12;;;;;;;6.45;3.30;;;;;;;19.38;71.88;99781.22;4462781;32;33975;-80
2023/09/18 05:45:41;;;;;;;7.40;3.30;;;;;;;19.49;71.25;99765.75;4470312;32;33429;-80
2023/09/18 05:48:10;;;;;;;6.55;2.80;;;;;;;19.49;71.52;99776.25;4463167;32;33405;-81
2023/09/18 05:50:41;;;;;;;5.30;2.50;;;;;;;19.72;70.67;99764.66;4465894;32;34754;-82
2023/09/18 05:53:11;;;;;;;;;;;;;;;19.76;69.89;99773.25;4473038;31;33986;-81
2023/09/18 05:55:40;;;;;;;7.18;2.40;;;;;;;20.10;69.18;99768.91;4475551;32;34027;-82
2023/09/18 05:58:09;;;;;;;6.82;3.10;;;;;;;20.18;69.05;99772.84;4464096;31;34081;-82
2023/09/18 06:00:38;;;;;;;5.85;2.78;;;;;;;20.30;68.46;99774.00;4465910;32;33483;-81
2023/09/18 06:03:09;;;;;;;5.30;2.92;;;;;;;20.29;68.42;99768.81;4470257;32;33549;-82
2023/09/18 06:05:38;;;;;;;;;;;;;;;20.32;67.85;99769.50;4462098;32;33921;-81
2023/09/18 06:08:07;;;;;;;5.20;2.67;;;;;;;20.47;67.43;99767.84;4467664;32;33844;-81
2023/09/18 06:10:37;;;;;;;6.87;2.65;;;;;;;20.53;67.20;99770.16;4464754;32;34577;-81
2023/09/18 06:13:06;;;;;;;4.83;2.60;;;;;;;20.27;68.47;99770.66;4462015;32;32409;-82
2023/09/18 06:15:35;;;;;;;5.72;3.08;;;;;;;20.21;68.50;99771.84;4465003;32;34332;-81
2023/09/18 06:18:06;;;;;;;6.18;3.22;;;;;;;20.44;67.82;99760.09;4470192;32;34317;-81
2023/09/18 06:20:35;;;;;;;5.60;2.92;;;;;;;20.61;66.88;99767.13;4465829;32;33448;-82
2023/09/18 06:23:04;;;;;;;5.90;3.12;;;;;;;20.58;66.76;99762.03;4466785;32;34091;-82
2023/09/18 06:25:33;;;;;;;4.75;2.30;;;;;;;20.62;67.38;99761.78;4468608;32;33892;-81
2023/09/18 06:28:04;;;;;;;5.65;2.92;;;;;;;20.85;65.99;99752.66;4467107;32;33895;-80
2023/09/18 06:30:34;;;;;;;4.62;2.62;;;;;;;20.95;65.80;99752.13;4471800;32;34600;-80
2023/09/18 06:33:04;;;;;;;9.82;3.85;;;;;;;21.09;65.01;99758.34;4458113;32;33208;-82
2023/09/18 06:35:33;;;;;;;8.45;4.45;;;;;;;20.86;65.52;99753.50;4468177;32;34966;-81
2023/09/18 06:38:02;;;;;;;12.13;3.90;;;;;;;21.04;65.23;99746.34;4461914;32;33731;-82
2023/09/18 06:40:31;;;;;;;5.90;3.15;;;;;;;21.15;64.87;99746.59;4481080;32;32713;-81
2023/09/18 06:43:01;;;;;;;8.55;3.45;;;;;;;21.24;64.61;99754.00;4464996;32;33668;-81
2023/09/18 06:45:33;;;;;;;10.23;2.80;;;;;;;21.25;64.24;99749.56;4466186;32;33742;-82
2023/09/18 06:48:02;;;;;;;5.75;4.15;;;;;;;21.46;63.67;99748.41;4466497;32;34985;-80
2023/09/18 06:50:31;;;;;;;8.43;3.12;;;;;;;21.40;64.37;99747.88;4459476;32;33427;-81
2023/09/18 06:53:00;;;;;;;6.97;3.20;;;;;;;21.49;64.18;99747.38;4466382;32;33489;-80
2023/09/18 06:55:29;;;;;;;8.00;4.12;;;;;;;21.48;63.48;99749.16;4460583;32;34701;-81
2023/09/18 06:57:58;;;;;;;5.55;2.58;;;;;;;21.57;63.19;99754.84;4463726;32;34356;-82
2023/09/18 07:00:26;;;;;;;6.78;2.50;;;;;;;21.68;62.57;99752.44;4463998;32;33674;-80
2023/09/18 07:02:57;;;;;;;4.53;2.35;;;;;;;21.36;63.71;99743.69;4476932;32;33428;-81
2023/09/18 07:05:26;;;;;;;5.78;2.80;;;;;;;21.81;62.31;99750.75;4464593;32;33927;-80
2023/09/18 07:07:57;;;;;;;5.95;2.47;;;;;;;21.78;62.46;99747.47;4461670;31;33233;-82
2023/09/18 07:10:26;;;;;;;5.65;3.00;;;;;;;21.80;62.65;99748.22;4467455;32;33459;-80
2023/09/18 07:12:55;;;;;;;5.90;2.78;;;;;;;21.73;62.53;99751.22;4467871;32;33667;-81
2023/09/18 07:15:24;;;;;;;6.72;3.35;;;;;;;22.01;61.95;99746.09;4467431;32;32945;-81
2023/09/18 07:17:53;;;;;;;4.68;2.50;;;;;;;22.09;61.58;99746.50;4465824;32;33361;-81
2023/09/18 07:20:23;;;;;;;4.68;1.92;;;;;;;22.27;61.31;99747.19;4469875;32;34404;-80
2023/09/18 07:22:53;;;;;;;7.53;3.20;;;;;;;22.13;62.13;99748.87;4469248;32;34406;-81
2023/09/18 07:25:22;;;;;;;6.10;3.08;;;;;;;22.06;62.16;99742.25;4475968;32;34817;-81
2023/09/18 07:27:50;;;;;;;5.22;2.40;;;;;;;22.23;61.57;99745.69;4471537;32;34359;-81
2023/09/18 07:30:21;;;;;;;5.53;2.58;;;;;;;22.50;60.64;99744.00;4467975;32;33848;-82
2023/09/18 07:32:50;;;;;;;;;;;;;;;22.16;61.40;99745.19;4467852;32;33393;-81
2023/09/18 07:35:19;;;;;;;4.72;2.40;;;;;;;22.31;61.61;99754.00;4476938;32;33821;-81
2023/09/18 07:37:49;;;;;;;6.43;3.20;;;;;;;22.62;60.58;99746.84;4476364;32;33344;-82
2023/09/18 07:40:18;;;;;;;5.05;3.03;;;;;;;22.47;60.67;99743.34;4464973;32;33099;-81
2023/09/18 07:42:47;;;;;;;5.53;2.67;;;;;;;22.78;59.32;99735.22;4468378;32;80556;-81
2023/09/18 07:45:17;;;;;;;6.12;3.00;;;;;;;22.51;60.16;99743.06;4463357;32;33848;-81
2023/09/18 07:47:46;;;;;;;6.22;3.50;;;;;;;22.85;59.67;99740.09;4468581;32;32668;-82
2023/09/18 07:50:15;;;;;;;5.37;2.55;;;;;;;22.52;60.51;99739.47;4465605;32;33348;-82
2023/09/18 07:52:47;;;;;;;6.15;2.95;;;;;;;22.51;60.30;99742.22;4468175;32;33230;-81
2023/09/18 07:55:17;;;;;;;4.93;2.80;;;;;;;22.34;61.43;99740.59;4468748;31;32715;-81
2023/09/18 07:57:49;;;;;;;5.62;2.85;;;;;;;22.68;60.30;99736.72;4472314;32;33481;-82
2023/09/18 08:00:19;;;;;;;5.43;2.85;;;;;;;22.69;59.95;99729.63;4468015;32;33131;-81
2023/09/18 08:02:49;;;;;;;6.40;2.87;;;;;;;22.96;59.73;99721.75;4474900;32;34698;-80
2023/09/18 08:05:18;;;;;;;9.63;2.33;;;;;;;23.16;59.42;99729.28;4465372;32;33857;-80
2023/09/18 08:07:49;;;;;;;4.78;2.53;;;;;;;23.02;59.44;99721.38;4469177;32;33638;-80
2023/09/18 08:10:19;;;;;;;4.90;2.80;;;;;;;23.18;58.83;99718.59;4470723;32;33733;-81
2023/09/18 08:12:50;;;;;;;7.10;3.70;;;;;;;23.02;59.46;99724.03;4463776;32;33008;-82
2023/09/18 08:15:18;;;;;;;5.82;3.12;;;;;;;23.15;59.49;99726.75;4470423;32;32631;-80
2023/09/18 08:17:49;;;;;;;7.10;2.80;;;;;;;23.21;59.14;99716.59;4462320;32;34013;-82
2023/09/18 08:20:18;;;;;;;8.07;2.97;;;;;;;23.26;58.63;99703.06;4472144;32;33679;-81
2023/09/18 08:22:49;;;;;;;5.97;2.92;;;;;;;23.20;58.46;99706.13;4468839;32;33859;-81
2023/09/18 08:25:19;;;;;;;7.17;3.10;;;;;;;23.39;58.33;99701.31;4465008;32;34558;-81
2023/09/18 08:27:48;;;;;;;4.60;2.40;;;;;;;23.75;57.96;99693.66;4470766;32;32546;-81
2023/09/18 08:30:20;;;;;;;5.97;2.83;;;;;;;23.66;58.13;99696.94;4473023;31;33817;-81
2023/09/18 08:32:49;;;;;;;6.62;2.78;;;;;;;23.88;57.30;99699.00;4481305;32;34717;-81
2023/09/18 08:35:18;;;;;;;7.03;2.75;;;;;;;23.84;57.78;99696.53;4462510;32;34086;-81
2023/09/18 08:37:47;;;;;;;5.30;2.70;;;;;;;23.71;57.63;99702.78;4471904;32;33233;-81
2023/09/18 08:40:16;;;;;;;5.40;2.72;;;;;;;23.72;57.33;99693.84;4473927;32;34089;-80
2023/09/18 08:42:48;;;;;;;7.25;3.20;;;;;;;24.06;56.79;99703.87;4469309;32;33850;-80
2023/09/18 08:45:24;;;;;;;6.37;3.55;;;;;;;24.16;56.34;99700.59;4462057;32;33864;-81
2023/09/18 08:47:53;;;;;;;5.32;2.97;;;;;;;24.34;55.65;99703.78;4472632;32;34070;-82
2023/09/18 08:50:22;;;;;;;5.40;2.58;;;;;;;24.41;55.66;99703.22;4464657;32;33851;-80
2023/09/18 08:52:51;;;;;;;12.10;3.75;;;;;;;24.48;55.71;99695.72;4468720;32;33943;-82
2023/09/18 08:55:22;;;;;;;6.00;3.05;;;;;;;24.36;56.69;99693.91;4473893;32;33645;-82
2023/09/18 08:57:53;;;;;;;18.50;5.18;;;;;;;24.46;55.95;99695.81;4464396;32;33269;-81
2023/09/18 09:00:21;;;;;;;7.57;3.22;;;;;;;24.80;54.96;99700.53;4464123;32;33113;-82
2023/09/18 09:02:52;;;;;;;7.32;3.95;;;;;;;24.99;55.40;99700.88;4473361;32;33485;-81
2023/09/18 09:05:21;;;;;;;6.10;2.92;;;;;;;24.93;54.86;99709.28;4463489;32;35239;-82
2023/09/18 09:07:51;;;;;;;10.10;3.22;;;;;;;25.16;54.06;99707.62;4469922;32;33759;-81
2023/09/18 09:10:20;;;;;;;7.00;2.87;;;;;;;24.99;53.55;99711.50;4463182;32;34269;-82
2023/09/18 09:12:53;;;;;;;3.85;1.92;;;;;;;25.21;53.96;99700.19;4466525;32;33455;-81
2023/09/18 09:15:23;;;;;;;4.60;2.40;;;;;;;25.41;53.94;99714.62;4468958;32;34507;-81
2023/09/18 09:17:53;;;;;;;4.50;2.45;;;;;;;25.38;53.92;99719.34;4478500;32;33385;-81
2023/09/18 09:20:22;;;;;;;5.22;2.37;;;;;;;25.47;52.99;99705.38;4469122;32;33340;-80
2023/09/18 09:22:51;;;;;;;5.82;2.70;;;;;;;25.42;53.53;99705.72;4464093;32;34001;-81
2023/09/18 09:25:28;;;;;;;5.07;2.45;;;;;;;25.68;53.65;99698.41;4464943;32;33880;-81
2023/09/18 09:27:59;;;;;;;3.37;2.10;;;;;;;26.00;52.18;99700.47;4472955;32;34344;-81
2023/09/18 09:30:28;;;;;;;;;;;;;;;25.98;51.50;99704.22;4469643;32;34150;-81
2023/09/18 09:32:59;;;;;;;5.22;2.20;;;;;;;25.77;51.57;99697.72;4464648;32;33668;-81
2023/09/18 09:35:28;;;;;;;;;;;;;;;25.89;51.87;99695.97;4467673;32;34028;-81
2023/09/18 09:38:00;;;;;;;4.25;2.42;;;;;;;26.02;52.06;99698.53;4470942;32;34145;-82
2023/09/18 09:40:30;;;;;;;5.60;2.95;;;;;;;26.23;51.80;99700.50;4472465;32;34574;-81
2023/09/18 09:43:01;;;;;;;5.60;2.92;;;;;;;26.26;51.46;99702.91;4464112;31;34573;-81
2023/09/18 09:45:35;;;;;;;7.65;3.65;;;;;;;26.13;51.00;99698.56;4472329;32;33429;-81
2023/09/18 09:48:05;;;;;;;6.43;3.28;;;;;;;26.26;50.38;99695.78;4462854;32;33345;-80
2023/09/18 09:50:40;;;;;;;7.00;2.87;;;;;;;26.31;51.12;99687.44;4461884;32;34690;-81
2023/09/18 09:53:10;;;;;;;4.25;2.10;;;;;;;26.20;50.68;99682.13;4470388;32;34695;-82
2023/09/18 09:55:39;;;;;;;2.85;1.67;;;;;;;26.32;50.62;99682.00;4474979;32;33830;-81
2023/09/18 09:58:10;;;;;;;4.78;2.65;;;;;;;26.20;50.12;99669.69;4465240;32;33442;-81
2023/09/18 10:00:43;;;;;;;5.35;2.75;;;;;;;26.58;50.00;99657.84;4470762;32;33400;-82
2023/09/18 10:03:13;;;;;;;5.25;2.60;;;;;;;26.68;49.46;99665.94;4474088;32;34508;-81
2023/09/18 10:05:43;;;;;;;3.47;1.85;;;;;;;26.93;49.15;99670.09;4468213;32;34989;-81
2023/09/18 10:08:14;;;;;;;;;;;;;;;26.80;49.36;99663.13;4474439;31;34480;-81
2023/09/18 10:10:46;;;;;;;6.53;3.35;;;;;;;26.72;49.26;99654.88;4466741;32;34181;-81
2023/09/18 10:13:20;;;;;;;4.47;2.42;;;;;;;26.90;48.75;99647.25;4461853;32;34573;-80
2023/09/18 10:15:51;;;;;;;4.18;2.35;;;;;;;26.91;49.58;99648.91;4467477;32;33691;-81
2023/09/18 10:18:28;;;;;;;4.35;2.50;;;;;;;27.13;49.39;99642.66;4473034;31;33991;-81
2023/09/18 10:21:06;;;;;;;4.82;2.25;;;;;;;27.09;48.90;99633.25;4477582;32;33992;-82
2023/09/18 10:23:50;;;;;;;9.02;2.30;;;;;;;27.17;48.11;99633.44;4463514;32;33392;-81
2023/09/18 10:26:29;;;;;;;4.15;2.03;;;;;;;27.17;48.28;99629.94;4469175;32;33804;-82
2023/09/18 10:29:03;;;;;;;9.55;3.03;;;;;;;27.26;48.08;99623.06;4472735;32;33142;-82
2023/09/18 10:31:34;;;;;;;4.45;2.55;;;;;;;27.45;47.57;99620.53;4473320;32;33689;-81
2023/09/18 10:34:04;;;;;;;6.18;2.12;;;;;;;27.57;46.89;99606.16;4460665;32;34649;-81
2023/09/18 10:36:34;;;;;;;4.43;2.58;;;;;;;27.56;47.74;99607.13;4463187;32;34453;-80
2023/09/18 10:39:08;;;;;;;4.20;2.28;;;;;;;27.87;47.45;99596.53;4459130;32;32726;-82
2023/09/18 10:41:37;;;;;;;4.25;2.20;;;;;;;27.77;46.33;99609.78;4470062;32;32987;-80
2023/09/18 10:44:08;;;;;;;4.12;2.15;;;;;;;27.76;46.03;99607.22;4466189;32;34388;-81
2023/09/18 10:46:37;;;;;;;;;;;;;;;27.92;46.63;99602.28;4459225;32;33837;-81
2023/09/18 10:49:06;;;;;;;4.90;2.25;;;;;;;27.79;46.89;99599.00;4461485;32;33463;-81
2023/09/18 10:51:37;;;;;;;7.87;2.12;;;;;;;28.04;46.74;99605.72;4470438;32;33481;-80
2023/09/18 10:54:08;;;;;;;4.10;2.53;;;;;;;28.05;46.00;99604.72;4472501;32;34503;-81
2023/09/18 10:56:37;;;;;;;5.60;2.08;;;;;;;27.99;45.99;99599.94;4469262;32;33656;-81
2023/09/18 10:59:13;;;;;;;4.37;2.22;;;;;;;28.29;45.53;99594.59;4467155;32;32348;-81
2023/09/18 11:01:43;;;;;;;4.28;2.20;;;;;;;28.28;45.74;99590.22;4466194;32;33471;-81
2023/09/18 11:04:14;;;;;;;5.03;2.53;;;;;;;28.16;45.92;99598.47;4475085;32;33529;-81
2023/09/18 11:07:09;;;;;;;4.47;2.47;;;;;;;28.27;46.21;99595.66;4468461;32;33649;-82
2023/09/18 11:09:47;;;;;;;5.45;2.53;;;;;;;28.52;45.07;99590.88;4456545;32;33375;-81
2023/09/18 11:12:17;;;;;;;4.03;2.25;;;;;;;28.55;43.84;99577.25;4461226;32;33139;-82
2023/09/18 11:14:52;;;;;;;3.92;2.28;;;;;;;28.97;44.03;99576.97;4460965;32;34680;-80
2023/09/18 11:17:33;;;;;;;4.37;2.22;;;;;;;28.74;44.25;99571.94;4461382;32;33750;-81
2023/09/18 11:20:15;;;;;;;4.25;2.47;;;;;;;28.83;44.29;99570.25;4465956;32;33228;-81
2023/09/18 11:22:48;;;;;;;4.37;2.25;;;;;;;28.92;44.13;99564.91;4462172;32;33436;-81
2023/09/18 11:25:37;;;;;;;3.75;2.20;;;;;;;28.93;43.92;99560.41;4464818;32;34487;-82
2023/09/18 11:28:09;;;;;;;5.00;2.62;;;;;;;29.06;43.20;99568.13;4464817;31;33573;-81
2023/09/18 11:30:50;;;;;;;5.35;2.85;;;;;;;28.85;42.76;99555.78;4457141;32;32230;-81
2023/09/18 11:33:31;;;;;;;5.12;2.40;;;;;;;28.88;42.80;99554.66;4462153;32;33594;-81
2023/09/18 11:36:06;;;;;;;4.68;2.42;;;;;;;29.26;42.73;99558.28;4468237;32;34106;-82
2023/09/18 11:38:36;;;;;;;6.20;2.92;;;;;;;29.38;43.05;99557.13;4463166;32;34509;-81
2023/09/18 11:41:24;;;;;;;5.05;2.80;;;;;;;29.29;42.17;99556.19;4458443;32;33523;-79
2023/09/18 11:44:32;;;;;;;4.93;2.58;;;;;;;29.44;42.47;99553.06;4467447;32;33881;-78
2023/09/18 11:47:08;;;;;;;8.18;3.22;;;;;;;29.61;42.09;99552.28;4461258;32;33578;-81
2023/09/18 11:49:37;;;;;;;4.28;2.15;;;;;;;29.43;41.65;99544.19;4463918;32;33707;-79
2023/09/18 11:52:06;;;;;;;5.00;2.80;;;;;;;29.47;42.24;99540.22;4464388;32;33741;-80